Alderson, Oklahoma
Current Conditions -  °F | °C
As of 10:07 PM on Saturday 20 Dec 2014 (Local Time) from KMLC Reporting Station
Haze Haze  
Wind Chill: 43°   Ceiling: 2400
Heat Index: 45°   Visibility: 6mi
Dew Point: 42°   Wind: 5mph
Humidity: 90%   Direction: 110°ESE
Pressure: 30.18"   Gusts: NA
Location:  34.9°N, 95.69°W
Report Text: KMLC 210407Z AUTO 11004KT 6SM BR SCT004 OVC024 07/06 A3018 RMK AO2 T00720056
Loading
Personal Weather Stations






























Interactive Weather Map New forecast layout! Learn more

10-Day Weather Forecast

Advertisements
Track Severe Weather on mobile